Terminal Aerodrome Forecast
Issued by NWS Huntsville, AL

Home | Current Version | Previous Version | Text Only | Print | Product List | Glossary On
Versions: 1 2 3 4 5 6 7 8 9 10 11 12 13 14 15
000
FTUS44 KHUN 061139
TAFMSL
TAF
KMSL 061139Z 0612/0712 30004KT P6SM SKC
     FM061500 34010G18KT P6SM SCT060
     FM070000 VRB03KT P6SM SKC
     FM070900 25005KT P6SM SCT080 SCT250=

USA.gov is the U.S. government's official web portal to all federal, state and local government web resources and services.